sensor_id;sensor_type;location;lat;lon;timestamp;pressure;altitude;pressure_sealevel;temperature
4421;BMP180;11824;51.178;13.546;2022-12-10T00:01:53;99257.00;;;2.40
4421;BMP180;11824;51.178;13.546;2022-12-10T00:04:44;99258.00;;;2.30
4421;BMP180;11824;51.178;13.546;2022-12-10T00:07:33;99265.00;;;2.30
4421;BMP180;11824;51.178;13.546;2022-12-10T00:10:14;99270.00;;;2.30
4421;BMP180;11824;51.178;13.546;2022-12-10T00:13:09;99258.00;;;2.30
4421;BMP180;11824;51.178;13.546;2022-12-10T00:16:09;99264.00;;;2.30
4421;BMP180;11824;51.178;13.546;2022-12-10T00:19:08;99267.00;;;2.30
4421;BMP180;11824;51.178;13.546;2022-12-10T00:21:55;99256.00;;;2.30
4421;BMP180;11824;51.178;13.546;2022-12-10T00:25:02;99266.00;;;2.30
4421;BMP180;11824;51.178;13.546;2022-12-10T00:28:03;99266.00;;;2.30
4421;BMP180;11824;51.178;13.546;2022-12-10T00:31:16;99268.00;;;2.30
4421;BMP180;11824;51.178;13.546;2022-12-10T00:34:04;99263.00;;;2.30
4421;BMP180;11824;51.178;13.546;2022-12-10T00:36:42;99266.00;;;2.30
4421;BMP180;11824;51.178;13.546;2022-12-10T00:39:27;99263.00;;;2.30
4421;BMP180;11824;51.178;13.546;2022-12-10T00:42:12;99261.00;;;2.30
4421;BMP180;11824;51.178;13.546;2022-12-10T00:44:50;99267.00;;;2.30
4421;BMP180;11824;51.178;13.546;2022-12-10T00:47:27;99259.00;;;2.30
4421;BMP180;11824;51.178;13.546;2022-12-10T00:50:15;99272.00;;;2.30
4421;BMP180;11824;51.178;13.546;2022-12-10T00:52:58;99256.00;;;2.20
4421;BMP180;11824;51.178;13.546;2022-12-10T00:55:48;99264.00;;;2.20
4421;BMP180;11824;51.178;13.546;2022-12-10T00:58:26;99265.00;;;2.20
4421;BMP180;11824;51.178;13.546;2022-12-10T01:01:35;99267.00;;;2.20
4421;BMP180;11824;51.178;13.546;2022-12-10T01:04:49;99269.00;;;2.30
4421;BMP180;11824;51.178;13.546;2022-12-10T01:07:57;99272.00;;;2.30
4421;BMP180;11824;51.178;13.546;2022-12-10T01:10:58;99269.00;;;2.30
4421;BMP180;11824;51.178;13.546;2022-12-10T01:13:41;99271.00;;;2.20
4421;BMP180;11824;51.178;13.546;2022-12-10T01:16:25;99273.00;;;2.20
4421;BMP180;11824;51.178;13.546;2022-12-10T01:19:13;99277.00;;;2.20
4421;BMP180;11824;51.178;13.546;2022-12-10T01:22:00;99274.00;;;2.20
4421;BMP180;11824;51.178;13.546;2022-12-10T01:24:35;99277.00;;;2.20
4421;BMP180;11824;51.178;13.546;2022-12-10T01:27:37;99272.00;;;2.10
4421;BMP180;11824;51.178;13.546;2022-12-10T01:30:30;99272.00;;;2.10
4421;BMP180;11824;51.178;13.546;2022-12-10T01:33:07;99269.00;;;2.10
4421;BMP180;11824;51.178;13.546;2022-12-10T01:35:39;99284.00;;;2.10
4421;BMP180;11824;51.178;13.546;2022-12-10T01:38:30;99289.00;;;2.10
4421;BMP180;11824;51.178;13.546;2022-12-10T01:41:35;99287.00;;;2.10
4421;BMP180;11824;51.178;13.546;2022-12-10T01:47:33;99300.00;;;2.10
4421;BMP180;11824;51.178;13.546;2022-12-10T01:50:15;99286.00;;;2.10
4421;BMP180;11824;51.178;13.546;2022-12-10T01:53:02;99289.00;;;2.10
4421;BMP180;11824;51.178;13.546;2022-12-10T01:55:47;99291.00;;;2.10
4421;BMP180;11824;51.178;13.546;2022-12-10T02:01:24;99283.00;;;2.00
4421;BMP180;11824;51.178;13.546;2022-12-10T02:04:21;99289.00;;;2.10
4421;BMP180;11824;51.178;13.546;2022-12-10T02:07:13;99283.00;;;2.10
4421;BMP180;11824;51.178;13.546;2022-12-10T02:10:03;99291.00;;;2.10
4421;BMP180;11824;51.178;13.546;2022-12-10T02:12:47;99285.00;;;2.00
4421;BMP180;11824;51.178;13.546;2022-12-10T02:15:47;99283.00;;;2.10
4421;BMP180;11824;51.178;13.546;2022-12-10T02:18:30;99286.00;;;2.10
4421;BMP180;11824;51.178;13.546;2022-12-10T02:21:28;99282.00;;;2.10
4421;BMP180;11824;51.178;13.546;2022-12-10T02:24:25;99274.00;;;2.00
4421;BMP180;11824;51.178;13.546;2022-12-10T02:27:14;99276.00;;;2.00
4421;BMP180;11824;51.178;13.546;2022-12-10T02:30:14;99263.00;;;2.00
4421;BMP180;11824;51.178;13.546;2022-12-10T02:33:20;99273.00;;;2.00
4421;BMP180;11824;51.178;13.546;2022-12-10T02:36:07;99267.00;;;2.00
4421;BMP180;11824;51.178;13.546;2022-12-10T02:38:42;99279.00;;;2.00
4421;BMP180;11824;51.178;13.546;2022-12-10T02:41:30;99266.00;;;2.00
4421;BMP180;11824;51.178;13.546;2022-12-10T02:44:21;99264.00;;;2.00
4421;BMP180;11824;51.178;13.546;2022-12-10T02:47:14;99268.00;;;2.00
4421;BMP180;11824;51.178;13.546;2022-12-10T02:50:20;99269.00;;;2.00
4421;BMP180;11824;51.178;13.546;2022-12-10T02:53:13;99276.00;;;2.00
4421;BMP180;11824;51.178;13.546;2022-12-10T02:56:04;99282.00;;;2.00
4421;BMP180;11824;51.178;13.546;2022-12-10T02:58:56;99274.00;;;1.90
4421;BMP180;11824;51.178;13.546;2022-12-10T03:02:15;99279.00;;;1.90
4421;BMP180;11824;51.178;13.546;2022-12-10T03:05:17;99284.00;;;1.90
4421;BMP180;11824;51.178;13.546;2022-12-10T03:08:12;99286.00;;;1.90
4421;BMP180;11824;51.178;13.546;2022-12-10T03:11:05;99277.00;;;1.90
4421;BMP180;11824;51.178;13.546;2022-12-10T03:14:33;99291.00;;;1.90
4421;BMP180;11824;51.178;13.546;2022-12-10T03:17:38;99292.00;;;1.90
4421;BMP180;11824;51.178;13.546;2022-12-10T03:20:13;99288.00;;;1.90
4421;BMP180;11824;51.178;13.546;2022-12-10T03:23:11;99299.00;;;1.90
4421;BMP180;11824;51.178;13.546;2022-12-10T03:29:23;99288.00;;;1.90
4421;BMP180;11824;51.178;13.546;2022-12-10T03:35:48;99304.00;;;1.90
4421;BMP180;11824;51.178;13.546;2022-12-10T03:38:28;99307.00;;;1.90
4421;BMP180;11824;51.178;13.546;2022-12-10T03:44:02;99297.00;;;1.90
4421;BMP180;11824;51.178;13.546;2022-12-10T03:46:31;99296.00;;;1.90
4421;BMP180;11824;51.178;13.546;2022-12-10T03:49:00;99296.00;;;1.90
4421;BMP180;11824;51.178;13.546;2022-12-10T03:51:31;99289.00;;;1.90
4421;BMP180;11824;51.178;13.546;2022-12-10T03:54:00;99288.00;;;1.90
4421;BMP180;11824;51.178;13.546;2022-12-10T03:56:28;99292.00;;;1.90
4421;BMP180;11824;51.178;13.546;2022-12-10T03:58:57;99284.00;;;2.00
4421;BMP180;11824;51.178;13.546;2022-12-10T04:01:26;99282.00;;;1.90
4421;BMP180;11824;51.178;13.546;2022-12-10T04:03:54;99291.00;;;2.00
4421;BMP180;11824;51.178;13.546;2022-12-10T04:06:23;99286.00;;;1.90
4421;BMP180;11824;51.178;13.546;2022-12-10T04:08:53;99284.00;;;1.90
4421;BMP180;11824;51.178;13.546;2022-12-10T04:11:25;99287.00;;;1.90
4421;BMP180;11824;51.178;13.546;2022-12-10T04:13:54;99277.00;;;1.90
4421;BMP180;11824;51.178;13.546;2022-12-10T04:16:40;99277.00;;;1.90
4421;BMP180;11824;51.178;13.546;2022-12-10T04:19:11;99285.00;;;1.90
4421;BMP180;11824;51.178;13.546;2022-12-10T04:21:41;99287.00;;;1.90
4421;BMP180;11824;51.178;13.546;2022-12-10T04:24:30;99300.00;;;1.90
4421;BMP180;11824;51.178;13.546;2022-12-10T04:27:20;99297.00;;;1.90
4421;BMP180;11824;51.178;13.546;2022-12-10T04:29:49;99307.00;;;1.90
4421;BMP180;11824;51.178;13.546;2022-12-10T04:32:18;99305.00;;;1.90
4421;BMP180;11824;51.178;13.546;2022-12-10T04:34:47;99297.00;;;1.90
4421;BMP180;11824;51.178;13.546;2022-12-10T04:37:16;99297.00;;;1.90
4421;BMP180;11824;51.178;13.546;2022-12-10T04:39:48;99296.00;;;1.90
4421;BMP180;11824;51.178;13.546;2022-12-10T04:42:17;99292.00;;;1.90
4421;BMP180;11824;51.178;13.546;2022-12-10T04:44:46;99292.00;;;1.90
4421;BMP180;11824;51.178;13.546;2022-12-10T04:47:14;99294.00;;;1.90
4421;BMP180;11824;51.178;13.546;2022-12-10T04:49:43;99288.00;;;1.90
4421;BMP180;11824;51.178;13.546;2022-12-10T04:52:13;99285.00;;;1.90
4421;BMP180;11824;51.178;13.546;2022-12-10T04:54:43;99283.00;;;1.90
4421;BMP180;11824;51.178;13.546;2022-12-10T04:57:13;99289.00;;;1.90
4421;BMP180;11824;51.178;13.546;2022-12-10T04:59:42;99288.00;;;1.90
4421;BMP180;11824;51.178;13.546;2022-12-10T05:02:11;99292.00;;;1.90
4421;BMP180;11824;51.178;13.546;2022-12-10T05:04:40;99298.00;;;1.90
4421;BMP180;11824;51.178;13.546;2022-12-10T05:07:08;99288.00;;;1.80
4421;BMP180;11824;51.178;13.546;2022-12-10T05:09:38;99288.00;;;1.80
4421;BMP180;11824;51.178;13.546;2022-12-10T05:12:07;99296.00;;;1.80
4421;BMP180;11824;51.178;13.546;2022-12-10T05:14:37;99289.00;;;1.80
4421;BMP180;11824;51.178;13.546;2022-12-10T05:17:06;99287.00;;;1.80
4421;BMP180;11824;51.178;13.546;2022-12-10T05:19:35;99285.00;;;1.80
4421;BMP180;11824;51.178;13.546;2022-12-10T05:22:03;99281.00;;;1.80
4421;BMP180;11824;51.178;13.546;2022-12-10T05:24:50;99283.00;;;1.80
4421;BMP180;11824;51.178;13.546;2022-12-10T05:27:18;99289.00;;;1.70
4421;BMP180;11824;51.178;13.546;2022-12-10T05:29:48;99285.00;;;1.70
4421;BMP180;11824;51.178;13.546;2022-12-10T05:32:17;99285.00;;;1.70
4421;BMP180;11824;51.178;13.546;2022-12-10T05:34:45;99296.00;;;1.70
4421;BMP180;11824;51.178;13.546;2022-12-10T05:37:14;99296.00;;;1.70
4421;BMP180;11824;51.178;13.546;2022-12-10T05:39:43;99289.00;;;1.70
4421;BMP180;11824;51.178;13.546;2022-12-10T05:42:12;99293.00;;;1.70
4421;BMP180;11824;51.178;13.546;2022-12-10T05:44:40;99291.00;;;1.70
4421;BMP180;11824;51.178;13.546;2022-12-10T05:47:10;99294.00;;;1.70
4421;BMP180;11824;51.178;13.546;2022-12-10T05:49:39;99290.00;;;1.70
4421;BMP180;11824;51.178;13.546;2022-12-10T05:52:08;99295.00;;;1.70
4421;BMP180;11824;51.178;13.546;2022-12-10T05:54:36;99285.00;;;1.70
4421;BMP180;11824;51.178;13.546;2022-12-10T05:57:05;99294.00;;;1.70
4421;BMP180;11824;51.178;13.546;2022-12-10T05:59:34;99292.00;;;1.70
4421;BMP180;11824;51.178;13.546;2022-12-10T06:02:02;99307.00;;;1.70
4421;BMP180;11824;51.178;13.546;2022-12-10T06:04:32;99296.00;;;1.70
4421;BMP180;11824;51.178;13.546;2022-12-10T06:07:01;99289.00;;;1.70
4421;BMP180;11824;51.178;13.546;2022-12-10T06:09:37;99296.00;;;1.70
4421;BMP180;11824;51.178;13.546;2022-12-10T06:12:06;99307.00;;;1.70
4421;BMP180;11824;51.178;13.546;2022-12-10T06:14:35;99311.00;;;1.60
4421;BMP180;11824;51.178;13.546;2022-12-10T06:17:03;99296.00;;;1.60
4421;BMP180;11824;51.178;13.546;2022-12-10T06:19:33;99304.00;;;1.60
4421;BMP180;11824;51.178;13.546;2022-12-10T06:22:02;99307.00;;;1.60
4421;BMP180;11824;51.178;13.546;2022-12-10T06:24:31;99304.00;;;1.60
4421;BMP180;11824;51.178;13.546;2022-12-10T06:26:59;99315.00;;;1.60
4421;BMP180;11824;51.178;13.546;2022-12-10T06:29:28;99312.00;;;1.60
4421;BMP180;11824;51.178;13.546;2022-12-10T06:31:57;99308.00;;;1.60
4421;BMP180;11824;51.178;13.546;2022-12-10T06:34:26;99317.00;;;1.50
4421;BMP180;11824;51.178;13.546;2022-12-10T06:36:56;99325.00;;;1.60
4421;BMP180;11824;51.178;13.546;2022-12-10T06:39:25;99327.00;;;1.60
4421;BMP180;11824;51.178;13.546;2022-12-10T06:41:53;99326.00;;;1.60
4421;BMP180;11824;51.178;13.546;2022-12-10T06:44:25;99315.00;;;1.60
4421;BMP180;11824;51.178;13.546;2022-12-10T06:46:54;99326.00;;;1.60
4421;BMP180;11824;51.178;13.546;2022-12-10T06:49:23;99327.00;;;1.50
4421;BMP180;11824;51.178;13.546;2022-12-10T06:51:52;99331.00;;;1.50
4421;BMP180;11824;51.178;13.546;2022-12-10T06:54:22;99337.00;;;1.50
4421;BMP180;11824;51.178;13.546;2022-12-10T06:56:50;99338.00;;;1.50
4421;BMP180;11824;51.178;13.546;2022-12-10T06:59:19;99339.00;;;1.50
4421;BMP180;11824;51.178;13.546;2022-12-10T07:01:48;99336.00;;;1.50
4421;BMP180;11824;51.178;13.546;2022-12-10T07:04:17;99336.00;;;1.50
4421;BMP180;11824;51.178;13.546;2022-12-10T07:06:46;99345.00;;;1.50
4421;BMP180;11824;51.178;13.546;2022-12-10T07:09:15;99342.00;;;1.50
4421;BMP180;11824;51.178;13.546;2022-12-10T07:11:45;99338.00;;;1.50
4421;BMP180;11824;51.178;13.546;2022-12-10T07:14:15;99338.00;;;1.50
4421;BMP180;11824;51.178;13.546;2022-12-10T07:16:44;99343.00;;;1.50
4421;BMP180;11824;51.178;13.546;2022-12-10T07:19:13;99346.00;;;1.50
4421;BMP180;11824;51.178;13.546;2022-12-10T07:21:43;99347.00;;;1.50
4421;BMP180;11824;51.178;13.546;2022-12-10T07:24:15;99355.00;;;1.50
4421;BMP180;11824;51.178;13.546;2022-12-10T07:26:46;99354.00;;;1.50
4421;BMP180;11824;51.178;13.546;2022-12-10T07:29:17;99359.00;;;1.50
4421;BMP180;11824;51.178;13.546;2022-12-10T07:31:46;99354.00;;;1.50
4421;BMP180;11824;51.178;13.546;2022-12-10T07:34:16;99366.00;;;1.50
4421;BMP180;11824;51.178;13.546;2022-12-10T07:36:45;99349.00;;;1.50
4421;BMP180;11824;51.178;13.546;2022-12-10T07:39:14;99359.00;;;1.50
4421;BMP180;11824;51.178;13.546;2022-12-10T07:41:50;99364.00;;;1.50
4421;BMP180;11824;51.178;13.546;2022-12-10T07:44:21;99360.00;;;1.50
4421;BMP180;11824;51.178;13.546;2022-12-10T07:46:52;99355.00;;;1.50
4421;BMP180;11824;51.178;13.546;2022-12-10T07:49:21;99365.00;;;1.50
4421;BMP180;11824;51.178;13.546;2022-12-10T07:51:50;99362.00;;;1.50
4421;BMP180;11824;51.178;13.546;2022-12-10T07:54:19;99367.00;;;1.50
4421;BMP180;11824;51.178;13.546;2022-12-10T07:56:49;99369.00;;;1.50
4421;BMP180;11824;51.178;13.546;2022-12-10T07:59:18;99373.00;;;1.50
4421;BMP180;11824;51.178;13.546;2022-12-10T08:01:47;99369.00;;;1.50
4421;BMP180;11824;51.178;13.546;2022-12-10T08:04:16;99371.00;;;1.50
4421;BMP180;11824;51.178;13.546;2022-12-10T08:06:45;99363.00;;;1.50
4421;BMP180;11824;51.178;13.546;2022-12-10T08:09:17;99360.00;;;1.50
4421;BMP180;11824;51.178;13.546;2022-12-10T08:11:45;99368.00;;;1.60
4421;BMP180;11824;51.178;13.546;2022-12-10T08:14:15;99366.00;;;1.60
4421;BMP180;11824;51.178;13.546;2022-12-10T08:16:44;99364.00;;;1.60
4421;BMP180;11824;51.178;13.546;2022-12-10T08:19:13;99365.00;;;1.60
4421;BMP180;11824;51.178;13.546;2022-12-10T08:21:49;99364.00;;;1.60
4421;BMP180;11824;51.178;13.546;2022-12-10T08:24:19;99370.00;;;1.70
4421;BMP180;11824;51.178;13.546;2022-12-10T08:26:48;99374.00;;;1.70
4421;BMP180;11824;51.178;13.546;2022-12-10T08:29:18;99377.00;;;1.70
4421;BMP180;11824;51.178;13.546;2022-12-10T08:31:48;99377.00;;;1.70
4421;BMP180;11824;51.178;13.546;2022-12-10T08:34:18;99393.00;;;1.70
4421;BMP180;11824;51.178;13.546;2022-12-10T08:36:47;99377.00;;;1.60
4421;BMP180;11824;51.178;13.546;2022-12-10T08:39:15;99375.00;;;1.60
4421;BMP180;11824;51.178;13.546;2022-12-10T08:41:45;99377.00;;;1.60
4421;BMP180;11824;51.178;13.546;2022-12-10T08:44:14;99384.00;;;1.60
4421;BMP180;11824;51.178;13.546;2022-12-10T08:46:44;99385.00;;;1.60
4421;BMP180;11824;51.178;13.546;2022-12-10T08:49:13;99384.00;;;1.60
4421;BMP180;11824;51.178;13.546;2022-12-10T08:51:42;99396.00;;;1.60
4421;BMP180;11824;51.178;13.546;2022-12-10T08:54:10;99391.00;;;1.60
4421;BMP180;11824;51.178;13.546;2022-12-10T08:56:39;99398.00;;;1.50
4421;BMP180;11824;51.178;13.546;2022-12-10T08:59:08;99401.00;;;1.60
4421;BMP180;11824;51.178;13.546;2022-12-10T09:01:37;99400.00;;;1.60
4421;BMP180;11824;51.178;13.546;2022-12-10T09:04:07;99393.00;;;1.60
4421;BMP180;11824;51.178;13.546;2022-12-10T09:06:36;99400.00;;;1.60
4421;BMP180;11824;51.178;13.546;2022-12-10T09:09:04;99403.00;;;1.60
4421;BMP180;11824;51.178;13.546;2022-12-10T09:11:34;99404.00;;;1.60
4421;BMP180;11824;51.178;13.546;2022-12-10T09:14:03;99414.00;;;1.60
4421;BMP180;11824;51.178;13.546;2022-12-10T09:16:34;99412.00;;;1.60
4421;BMP180;11824;51.178;13.546;2022-12-10T09:19:04;99413.00;;;1.60
4421;BMP180;11824;51.178;13.546;2022-12-10T09:21:36;99415.00;;;1.60
4421;BMP180;11824;51.178;13.546;2022-12-10T09:24:06;99423.00;;;1.60
4421;BMP180;11824;51.178;13.546;2022-12-10T09:26:34;99415.00;;;1.60
4421;BMP180;11824;51.178;13.546;2022-12-10T09:29:03;99414.00;;;1.60
4421;BMP180;11824;51.178;13.546;2022-12-10T09:31:32;99413.00;;;1.60
4421;BMP180;11824;51.178;13.546;2022-12-10T09:34:01;99402.00;;;1.60
4421;BMP180;11824;51.178;13.546;2022-12-10T09:36:29;99408.00;;;1.60
4421;BMP180;11824;51.178;13.546;2022-12-10T09:39:02;99407.00;;;1.60
4421;BMP180;11824;51.178;13.546;2022-12-10T09:41:50;99412.00;;;1.70
4421;BMP180;11824;51.178;13.546;2022-12-10T09:44:30;99404.00;;;1.70
4421;BMP180;11824;51.178;13.546;2022-12-10T09:47:02;99409.00;;;1.70
4421;BMP180;11824;51.178;13.546;2022-12-10T09:49:42;99397.00;;;1.70
4421;BMP180;11824;51.178;13.546;2022-12-10T09:52:13;99405.00;;;1.80
4421;BMP180;11824;51.178;13.546;2022-12-10T09:54:47;99399.00;;;1.80
4421;BMP180;11824;51.178;13.546;2022-12-10T09:57:21;99395.00;;;1.90
4421;BMP180;11824;51.178;13.546;2022-12-10T09:59:52;99411.00;;;1.90
4421;BMP180;11824;51.178;13.546;2022-12-10T10:02:23;99401.00;;;1.90
4421;BMP180;11824;51.178;13.546;2022-12-10T10:04:55;99398.00;;;1.90
4421;BMP180;11824;51.178;13.546;2022-12-10T10:07:28;99395.00;;;1.90
4421;BMP180;11824;51.178;13.546;2022-12-10T10:10:04;99395.00;;;1.90
4421;BMP180;11824;51.178;13.546;2022-12-10T10:12:34;99386.00;;;1.90
4421;BMP180;11824;51.178;13.546;2022-12-10T10:15:13;99401.00;;;1.90
4421;BMP180;11824;51.178;13.546;2022-12-10T10:17:43;99392.00;;;1.90
4421;BMP180;11824;51.178;13.546;2022-12-10T10:20:14;99401.00;;;1.90
4421;BMP180;11824;51.178;13.546;2022-12-10T10:22:43;99393.00;;;2.00
4421;BMP180;11824;51.178;13.546;2022-12-10T10:25:16;99400.00;;;2.00
4421;BMP180;11824;51.178;13.546;2022-12-10T10:27:46;99392.00;;;2.10
4421;BMP180;11824;51.178;13.546;2022-12-10T10:30:17;99390.00;;;2.10
4421;BMP180;11824;51.178;13.546;2022-12-10T10:32:49;99390.00;;;2.20
4421;BMP180;11824;51.178;13.546;2022-12-10T10:35:27;99397.00;;;2.30
4421;BMP180;11824;51.178;13.546;2022-12-10T10:37:58;99384.00;;;2.30
4421;BMP180;11824;51.178;13.546;2022-12-10T10:40:32;99393.00;;;2.40
4421;BMP180;11824;51.178;13.546;2022-12-10T10:43:01;99389.00;;;2.40
4421;BMP180;11824;51.178;13.546;2022-12-10T10:45:36;99390.00;;;2.40
4421;BMP180;11824;51.178;13.546;2022-12-10T10:48:09;99384.00;;;2.40
4421;BMP180;11824;51.178;13.546;2022-12-10T10:50:41;99386.00;;;2.40
4421;BMP180;11824;51.178;13.546;2022-12-10T10:53:24;99389.00;;;2.40
4421;BMP180;11824;51.178;13.546;2022-12-10T10:55:56;99385.00;;;2.30
4421;BMP180;11824;51.178;13.546;2022-12-10T10:58:26;99382.00;;;2.30
4421;BMP180;11824;51.178;13.546;2022-12-10T11:01:00;99390.00;;;2.30
4421;BMP180;11824;51.178;13.546;2022-12-10T11:03:32;99374.00;;;2.30
4421;BMP180;11824;51.178;13.546;2022-12-10T11:06:04;99379.00;;;2.30
4421;BMP180;11824;51.178;13.546;2022-12-10T11:08:37;99380.00;;;2.20
4421;BMP180;11824;51.178;13.546;2022-12-10T11:11:12;99377.00;;;2.20
4421;BMP180;11824;51.178;13.546;2022-12-10T11:13:42;99388.00;;;2.20
4421;BMP180;11824;51.178;13.546;2022-12-10T11:16:15;99392.00;;;2.20
4421;BMP180;11824;51.178;13.546;2022-12-10T11:18:54;99390.00;;;2.20
4421;BMP180;11824;51.178;13.546;2022-12-10T11:21:23;99389.00;;;2.20
4421;BMP180;11824;51.178;13.546;2022-12-10T11:23:54;99387.00;;;2.20
4421;BMP180;11824;51.178;13.546;2022-12-10T11:26:40;99384.00;;;2.20
4421;BMP180;11824;51.178;13.546;2022-12-10T11:29:36;99382.00;;;2.20
4421;BMP180;11824;51.178;13.546;2022-12-10T11:32:20;99377.00;;;2.20
4421;BMP180;11824;51.178;13.546;2022-12-10T11:35:01;99387.00;;;2.20
4421;BMP180;11824;51.178;13.546;2022-12-10T11:37:34;99388.00;;;2.10
4421;BMP180;11824;51.178;13.546;2022-12-10T11:40:24;99387.00;;;2.10
4421;BMP180;11824;51.178;13.546;2022-12-10T11:43:05;99386.00;;;2.10
4421;BMP180;11824;51.178;13.546;2022-12-10T11:45:45;99382.00;;;2.00
4421;BMP180;11824;51.178;13.546;2022-12-10T11:48:26;99383.00;;;2.00
4421;BMP180;11824;51.178;13.546;2022-12-10T11:51:02;99394.00;;;2.00
4421;BMP180;11824;51.178;13.546;2022-12-10T11:53:44;99392.00;;;2.00
4421;BMP180;11824;51.178;13.546;2022-12-10T11:56:21;99399.00;;;2.00
4421;BMP180;11824;51.178;13.546;2022-12-10T11:59:09;99400.00;;;1.90
4421;BMP180;11824;51.178;13.546;2022-12-10T12:01:59;99397.00;;;1.90
4421;BMP180;11824;51.178;13.546;2022-12-10T12:04:47;99393.00;;;1.90
4421;BMP180;11824;51.178;13.546;2022-12-10T12:07:35;99403.00;;;1.90
4421;BMP180;11824;51.178;13.546;2022-12-10T12:10:35;99390.00;;;1.80
4421;BMP180;11824;51.178;13.546;2022-12-10T12:13:24;99397.00;;;1.80
4421;BMP180;11824;51.178;13.546;2022-12-10T12:15:59;99395.00;;;1.70
4421;BMP180;11824;51.178;13.546;2022-12-10T12:18:40;99399.00;;;1.70
4421;BMP180;11824;51.178;13.546;2022-12-10T12:21:11;99406.00;;;1.60
4421;BMP180;11824;51.178;13.546;2022-12-10T12:23:47;99390.00;;;1.60
4421;BMP180;11824;51.178;13.546;2022-12-10T12:26:24;99399.00;;;1.60
4421;BMP180;11824;51.178;13.546;2022-12-10T12:28:58;99397.00;;;1.50
4421;BMP180;11824;51.178;13.546;2022-12-10T12:31:33;99404.00;;;1.50
4421;BMP180;11824;51.178;13.546;2022-12-10T12:34:10;99406.00;;;1.50
4421;BMP180;11824;51.178;13.546;2022-12-10T12:36:42;99404.00;;;1.50
4421;BMP180;11824;51.178;13.546;2022-12-10T12:39:19;99409.00;;;1.50
4421;BMP180;11824;51.178;13.546;2022-12-10T12:41:57;99402.00;;;1.50
4421;BMP180;11824;51.178;13.546;2022-12-10T12:44:34;99398.00;;;1.50
4421;BMP180;11824;51.178;13.546;2022-12-10T12:47:19;99397.00;;;1.50
4421;BMP180;11824;51.178;13.546;2022-12-10T12:49:51;99388.00;;;1.50
4421;BMP180;11824;51.178;13.546;2022-12-10T12:52:29;99385.00;;;1.50
4421;BMP180;11824;51.178;13.546;2022-12-10T12:55:06;99388.00;;;1.50
4421;BMP180;11824;51.178;13.546;2022-12-10T12:57:45;99389.00;;;1.40
4421;BMP180;11824;51.178;13.546;2022-12-10T13:00:18;99395.00;;;1.40
4421;BMP180;11824;51.178;13.546;2022-12-10T13:02:57;99395.00;;;1.40
4421;BMP180;11824;51.178;13.546;2022-12-10T13:05:30;99382.00;;;1.30
4421;BMP180;11824;51.178;13.546;2022-12-10T13:08:29;99398.00;;;1.30
4421;BMP180;11824;51.178;13.546;2022-12-10T13:11:14;99393.00;;;1.30
4421;BMP180;11824;51.178;13.546;2022-12-10T13:14:15;99407.00;;;1.30
4421;BMP180;11824;51.178;13.546;2022-12-10T13:17:07;99404.00;;;1.30
4421;BMP180;11824;51.178;13.546;2022-12-10T13:19:39;99399.00;;;1.30
4421;BMP180;11824;51.178;13.546;2022-12-10T13:22:10;99406.00;;;1.20
4421;BMP180;11824;51.178;13.546;2022-12-10T13:25:05;99407.00;;;1.30
4421;BMP180;11824;51.178;13.546;2022-12-10T13:27:35;99409.00;;;1.20
4421;BMP180;11824;51.178;13.546;2022-12-10T13:33:00;99409.00;;;1.20
4421;BMP180;11824;51.178;13.546;2022-12-10T13:35:31;99402.00;;;1.30
4421;BMP180;11824;51.178;13.546;2022-12-10T13:38:05;99414.00;;;1.30
4421;BMP180;11824;51.178;13.546;2022-12-10T13:40:58;99414.00;;;1.30
4421;BMP180;11824;51.178;13.546;2022-12-10T13:43:56;99420.00;;;1.20
4421;BMP180;11824;51.178;13.546;2022-12-10T13:46:55;99426.00;;;1.20
4421;BMP180;11824;51.178;13.546;2022-12-10T13:49:25;99433.00;;;1.20
4421;BMP180;11824;51.178;13.546;2022-12-10T13:52:04;99428.00;;;1.20
4421;BMP180;11824;51.178;13.546;2022-12-10T13:55:02;99434.00;;;1.20
4421;BMP180;11824;51.178;13.546;2022-12-10T13:58:15;99432.00;;;1.20
4421;BMP180;11824;51.178;13.546;2022-12-10T14:00:55;99437.00;;;1.20
4421;BMP180;11824;51.178;13.546;2022-12-10T14:03:52;99438.00;;;1.30
4421;BMP180;11824;51.178;13.546;2022-12-10T14:06:26;99434.00;;;1.30
4421;BMP180;11824;51.178;13.546;2022-12-10T14:08:59;99434.00;;;1.30
4421;BMP180;11824;51.178;13.546;2022-12-10T14:11:31;99442.00;;;1.30
4421;BMP180;11824;51.178;13.546;2022-12-10T14:14:05;99433.00;;;1.30
4421;BMP180;11824;51.178;13.546;2022-12-10T14:16:35;99430.00;;;1.30
4421;BMP180;11824;51.178;13.546;2022-12-10T14:19:07;99439.00;;;1.30
4421;BMP180;11824;51.178;13.546;2022-12-10T14:21:41;99436.00;;;1.30
4421;BMP180;11824;51.178;13.546;2022-12-10T14:24:28;99442.00;;;1.20
4421;BMP180;11824;51.178;13.546;2022-12-10T14:27:00;99449.00;;;1.20
4421;BMP180;11824;51.178;13.546;2022-12-10T14:29:28;99444.00;;;1.20
4421;BMP180;11824;51.178;13.546;2022-12-10T14:31:57;99450.00;;;1.10
4421;BMP180;11824;51.178;13.546;2022-12-10T14:34:28;99456.00;;;1.20
4421;BMP180;11824;51.178;13.546;2022-12-10T14:37:00;99458.00;;;1.20
4421;BMP180;11824;51.178;13.546;2022-12-10T14:39:34;99456.00;;;1.10
4421;BMP180;11824;51.178;13.546;2022-12-10T14:42:09;99459.00;;;1.10
4421;BMP180;11824;51.178;13.546;2022-12-10T14:44:41;99454.00;;;1.10
4421;BMP180;11824;51.178;13.546;2022-12-10T14:47:14;99469.00;;;1.10
4421;BMP180;11824;51.178;13.546;2022-12-10T14:49:45;99467.00;;;1.10
4421;BMP180;11824;51.178;13.546;2022-12-10T14:52:16;99465.00;;;1.10
4421;BMP180;11824;51.178;13.546;2022-12-10T14:54:47;99469.00;;;1.10
4421;BMP180;11824;51.178;13.546;2022-12-10T14:57:21;99467.00;;;1.10
4421;BMP180;11824;51.178;13.546;2022-12-10T14:59:53;99472.00;;;1.10
4421;BMP180;11824;51.178;13.546;2022-12-10T15:02:29;99469.00;;;1.10
4421;BMP180;11824;51.178;13.546;2022-12-10T15:04:59;99476.00;;;1.10
4421;BMP180;11824;51.178;13.546;2022-12-10T15:07:32;99476.00;;;1.10
4421;BMP180;11824;51.178;13.546;2022-12-10T15:10:08;99468.00;;;1.10
4421;BMP180;11824;51.178;13.546;2022-12-10T15:12:44;99468.00;;;1.10
4421;BMP180;11824;51.178;13.546;2022-12-10T15:15:25;99468.00;;;1.00
4421;BMP180;11824;51.178;13.546;2022-12-10T15:17:58;99476.00;;;1.00
4421;BMP180;11824;51.178;13.546;2022-12-10T15:20:30;99477.00;;;1.00
4421;BMP180;11824;51.178;13.546;2022-12-10T15:23:20;99479.00;;;1.00
4421;BMP180;11824;51.178;13.546;2022-12-10T15:25:59;99478.00;;;1.00
4421;BMP180;11824;51.178;13.546;2022-12-10T15:28:31;99478.00;;;1.00
4421;BMP180;11824;51.178;13.546;2022-12-10T15:31:12;99472.00;;;1.00
4421;BMP180;11824;51.178;13.546;2022-12-10T15:33:43;99472.00;;;1.00
4421;BMP180;11824;51.178;13.546;2022-12-10T15:36:19;99471.00;;;1.00
4421;BMP180;11824;51.178;13.546;2022-12-10T15:38:48;99461.00;;;1.00